Station Historical Data
Daily Summary for January 14, 2018 Units:  Metric    English   Both
« Previous Day
Next Day »
Daily Weekly Monthly Yearly Custom
  High: Low: Average:
Temperature: -17.8 °C -18.9 °C -17.7 °C
Dew Point: -17.8 °C -20.1 °C -19.3 °C
Humidity: Humidity % 73 % 81 %
Wind Speed: 0 km/h 0 km/h 7.9 km/h
Wind Gust: 0 km/h - -
Wind:- - WSW
Pressure: 0 hPa -114650 hPa -
Precipitation: 0 mm    
Historical Graphs
 
 
Tabular Data for January 14, 2018
Time Temperature Dew Point Pressure Wind Wind Speed Wind Gust Humidity Rainfall Rate (Hourly) solar Conditions
-17.8 °C -17.8 °C 0 hPa Calm     Humidity % 0 mm SoftwareType W/m2 Conditions
00:06 -17.7 °C -19.2 °C 34774.2 hPa WSW 11.1 km/h 11.1 km/h 82 % 0 mm meteobridge W/m2
00:12 -17.8 °C -19.3 °C 34774.2 hPa WSW 7.6 km/h 7.6 km/h 82 % 0 mm meteobridge W/m2
00:18 -17.7 °C -19.2 °C 34774.2 hPa WSW 5.6 km/h 7.6 km/h 82 % 0 mm meteobridge W/m2
00:24 -17.7 °C -19.2 °C 34774.2 hPa WSW 5.1 km/h 6.9 km/h 82 % 0 mm meteobridge W/m2
00:30 -17.8 °C -19.3 °C 34774.2 hPa Calm   6.9 km/h 82 % 0 mm meteobridge W/m2
00:49 -17.7 °C -19.1 °C 34774.2 hPa WSW 8 km/h 8 km/h 83 % 0 mm meteobridge W/m2
00:56 -17.7 °C -19.1 °C 34774.2 hPa WSW 9.8 km/h 14.5 km/h 83 % 0 mm meteobridge W/m2
01:02 -17.7 °C -19.1 °C 34774.2 hPa WSW 12.2 km/h 15 km/h 83 % 0 mm meteobridge W/m2
01:09 -17.7 °C -19.1 °C -114650 hPa WSW 8 km/h 16.3 km/h 83 % 0 mm meteobridge W/m2
01:16 -17.7 °C -19.1 °C 34774.2 hPa WSW 7.6 km/h 18.7 km/h 83 % 0 mm meteobridge W/m2
01:22 -17.7 °C -19.1 °C 34774.2 hPa West 8.9 km/h 8.9 km/h 83 % 0 mm meteobridge W/m2
01:28 -17.6 °C -19.1 °C 34774.2 hPa WSW 9.3 km/h 9.3 km/h 82 % 0 mm meteobridge W/m2
01:34 -17.7 °C -19.1 °C 34774.2 hPa WSW 8 km/h 10.3 km/h 83 % 0 mm meteobridge W/m2
01:47 -17.7 °C -19.1 °C 34774.2 hPa WSW 12.2 km/h 12.2 km/h 83 % 0 mm meteobridge W/m2
01:54 -17.7 °C -19.1 °C 34774.2 hPa SW 8.9 km/h 15.6 km/h 83 % 0 mm meteobridge W/m2
02:00 -17.8 °C -19.2 °C 34774.2 hPa WSW 6.4 km/h 9.8 km/h 83 % 0 mm meteobridge W/m2
02:05 -17.8 °C -19.2 °C 34774.2 hPa SW 8 km/h 8 km/h 83 % 0 mm meteobridge W/m2
02:18 -17.8 °C -19.2 °C 34774.2 hPa West 9.3 km/h 9.3 km/h 83 % 0 mm meteobridge W/m2
02:24 -17.8 °C -19.2 °C 34774.2 hPa Calm   6.9 km/h 83 % 0 mm meteobridge W/m2
02:30 -17.9 °C -19.3 °C 34774.2 hPa Calm     83 % 0 mm meteobridge W/m2
02:37 -17.9 °C -19.3 °C 34774.2 hPa Calm     83 % 0 mm meteobridge W/m2
02:43 -17.9 °C -19.2 °C 34774.2 hPa West 5.1 km/h 10.3 km/h 84 % 0 mm meteobridge W/m2
02:49 -17.9 °C -19.2 °C 34774.2 hPa SSW 9.3 km/h 11.1 km/h 84 % 0 mm meteobridge W/m2
03:02 -17.9 °C -19.2 °C 34774.2 hPa WSW 8.9 km/h 9.8 km/h 84 % 0 mm meteobridge W/m2
03:10 -17.8 °C -19.2 °C 34740.4 hPa WSW 10.3 km/h 10.3 km/h 84 % 0 mm meteobridge W/m2
03:18 -17.8 °C -19.2 °C 34740.4 hPa Calm     84 % 0 mm meteobridge W/m2
03:24 -17.8 °C -19.2 °C 34740.4 hPa WNW 11.1 km/h 11.1 km/h 84 % 0 mm meteobridge W/m2
03:30 -17.9 °C -19.2 °C 34740.4 hPa West 4.2 km/h 4.2 km/h 84 % 0 mm meteobridge W/m2
03:43 -17.9 °C -19.2 °C 34740.4 hPa WSW 6.9 km/h 6.9 km/h 84 % 0 mm meteobridge W/m2
03:49 -17.9 °C -19.3 °C 34740.4 hPa WSW 4.2 km/h 4.2 km/h 83 % 0 mm meteobridge W/m2
03:55 -17.9 °C -19.3 °C 34740.4 hPa Calm   9.3 km/h 83 % 0 mm meteobridge W/m2
04:01 -18 °C -19.4 °C 34740.4 hPa WSW 5.1 km/h 8.9 km/h 83 % 0 mm meteobridge W/m2
04:07 -17.9 °C -19.3 °C 34740.4 hPa Calm   12.7 km/h 83 % 0 mm meteobridge W/m2
04:13 -17.9 °C -19.3 °C 34740.4 hPa West 12.2 km/h 12.2 km/h 83 % 0 mm meteobridge W/m2
04:19 -18 °C -19.4 °C 34740.4 hPa WSW 14.5 km/h 14.5 km/h 83 % 0 mm meteobridge W/m2
04:26 -18 °C -19.4 °C 34740.4 hPa WSW 14.5 km/h 16.3 km/h 83 % 0 mm meteobridge W/m2
04:32 -18 °C -19.4 °C 34740.4 hPa WSW 15.6 km/h 15.6 km/h 83 % 0 mm meteobridge W/m2
04:39 -18 °C -19.4 °C 34740.4 hPa West 15.6 km/h 16.9 km/h 83 % 0 mm meteobridge W/m2
04:51 -18.1 °C -19.4 °C 34740.4 hPa WSW 3.4 km/h 16.3 km/h 83 % 0 mm meteobridge W/m2
04:58 -18 °C -19.4 °C 34740.4 hPa WSW 2.9 km/h 8.9 km/h 83 % 0 mm meteobridge W/m2
05:11 -18 °C -19.4 °C 34740.4 hPa WSW 4.2 km/h 16.3 km/h 83 % 0 mm meteobridge W/m2
05:17 -18 °C -19.4 °C 34740.4 hPa WNW 2.9 km/h 2.9 km/h 83 % 0 mm meteobridge W/m2
05:24 -18.1 °C -19.4 °C 34740.4 hPa SW 6.4 km/h 23 km/h 83 % 0 mm meteobridge W/m2
05:30 -18.1 °C -19.4 °C 34740.4 hPa WSW 11.1 km/h 11.1 km/h 83 % 0 mm meteobridge W/m2
05:37 -18.1 °C -19.5 °C 34740.4 hPa WSW 5.1 km/h 9.8 km/h 83 % 0 mm meteobridge W/m2
05:43 -18.1 °C -19.5 °C 34740.4 hPa West 6.9 km/h 6.9 km/h 83 % 0 mm meteobridge W/m2
05:50 -18.2 °C -19.6 °C 34740.4 hPa WSW 9.3 km/h 9.8 km/h 83 % 0 mm meteobridge W/m2
05:56 -18.1 °C -19.5 °C 34740.4 hPa WSW 11.1 km/h 14 km/h 83 % 0 mm meteobridge W/m2
06:02 -18.2 °C -19.6 °C 34740.4 hPa WSW 14 km/h 14 km/h 83 % 0 mm meteobridge W/m2
06:08 -18.2 °C -19.6 °C 34740.4 hPa SSW 5.1 km/h 14.5 km/h 83 % 0 mm meteobridge W/m2
06:21 -18.3 °C -19.7 °C 34740.4 hPa WNW 7.6 km/h 7.6 km/h 83 % 0 mm meteobridge W/m2
06:33 -18.3 °C -19.7 °C 34740.4 hPa West 6.9 km/h 9.3 km/h 83 % 0 mm meteobridge W/m2
06:39 -18.3 °C -19.7 °C 34740.4 hPa West 9.8 km/h 9.8 km/h 83 % 0 mm meteobridge W/m2
06:45 -18.3 °C -19.7 °C 34740.4 hPa ENE 14 km/h 14 km/h 83 % 0 mm meteobridge W/m2
06:51 -18.3 °C -19.7 °C 34740.4 hPa WSW 6.9 km/h 12.7 km/h 83 % 0 mm meteobridge W/m2
06:58 -18.4 °C -19.8 °C 34740.4 hPa West 19.2 km/h 19.2 km/h 83 % 0 mm meteobridge W/m2
07:11 -18.6 °C -19.9 °C 34774.2 hPa West 8.9 km/h 8.9 km/h 83 % 0 mm meteobridge W/m2
07:17 -18.6 °C -19.9 °C 34774.2 hPa WNW 2.9 km/h 2.9 km/h 84 % 0 mm meteobridge W/m2
07:30 -18.6 °C -19.9 °C 34774.2 hPa West 6.9 km/h 6.9 km/h 84 % 0 mm meteobridge W/m2
07:37 -18.6 °C -19.9 °C 34740.4 hPa West 2.3 km/h 6.9 km/h 84 % 0 mm meteobridge W/m2
07:43 -18.6 °C -19.9 °C 34740.4 hPa WSW 10.3 km/h 10.3 km/h 84 % 0 mm meteobridge W/m2
07:49 -18.6 °C -19.9 °C 34774.2 hPa WSW 7.6 km/h 8 km/h 84 % 0 mm meteobridge W/m2
07:56 -18.6 °C -19.8 °C 34774.2 hPa WSW 9.3 km/h 9.3 km/h 85 % 0 mm meteobridge W/m2
08:03 -18.6 °C -19.8 °C 34774.2 hPa WSW 4.2 km/h 8 km/h 85 % 0 mm meteobridge W/m2
08:10 -18.7 °C -19.9 °C 34774.2 hPa Calm     85 % 0 mm meteobridge W/m2
08:16 -18.8 °C -20 °C 34774.2 hPa WNW 2.3 km/h 6.4 km/h 85 % 0 mm meteobridge W/m2
08:22 -18.7 °C -19.9 °C 34774.2 hPa West 6.9 km/h 6.9 km/h 85 % 0 mm meteobridge W/m2
08:28 -18.7 °C -19.9 °C 34774.2 hPa WSW 3.4 km/h 10.3 km/h 85 % 0 mm meteobridge W/m2
08:35 -18.7 °C -19.9 °C 34774.2 hPa WNW 8.9 km/h 15 km/h 85 % 0 mm meteobridge W/m2
08:41 -18.8 °C -20 °C 34774.2 hPa Calm   7.6 km/h 85 % 0 mm meteobridge W/m2
08:47 -18.9 °C -20.1 °C 34774.2 hPa WSW 6.9 km/h 8.9 km/h 85 % 0 mm meteobridge W/m2
08:53 -18.9 °C -20.1 °C 34774.2 hPa WNW 5.1 km/h 5.1 km/h 85 % 0 mm meteobridge W/m2
08:59 -18.9 °C -20 °C 34774.2 hPa WSW 7.6 km/h 8.9 km/h 86 % 0 mm meteobridge W/m2
09:07 -18.7 °C -19.8 °C 34774.2 hPa South 5.6 km/h 7.6 km/h 86 % 0 mm meteobridge W/m2
09:13 -18.7 °C -19.9 °C 34774.2 hPa WSW 6.9 km/h 6.9 km/h 85 % 0 mm meteobridge W/m2
09:19 -18.6 °C -19.8 °C 34774.2 hPa WSW 6.4 km/h 9.3 km/h 85 % 0 mm meteobridge W/m2
09:25 -18.5 °C -19.7 °C 34774.2 hPa WSW 8.9 km/h 8.9 km/h 85 % 0 mm meteobridge W/m2
09:31 -18.4 °C -19.7 °C 34774.2 hPa WSW 5.6 km/h 15.6 km/h 85 % 0 mm meteobridge W/m2
09:37 -18.4 °C -19.7 °C 34774.2 hPa WSW 8.9 km/h 8.9 km/h 85 % 0 mm meteobridge W/m2
09:43 -18.4 °C -19.7 °C 34774.2 hPa WSW 9.3 km/h -2586.8 km/h 85 % 0 mm meteobridge W/m2
09:49 -18.4 °C -19.7 °C 34774.2 hPa WSW 15.6 km/h 15.6 km/h 84 % 0 mm meteobridge W/m2
10:01 -18.3 °C -19.6 °C 34774.2 hPa WSW 8 km/h 8 km/h 84 % 0 mm meteobridge W/m2
10:07 -18.2 °C -19.6 °C 34774.2 hPa West 9.3 km/h 14 km/h 84 % 0 mm meteobridge W/m2
10:19 -18.1 °C -19.4 °C 34774.2 hPa WNW 2.9 km/h 6.4 km/h 84 % 0 mm meteobridge W/m2
10:25 -18.1 °C -19.5 °C 34774.2 hPa WSW 3.4 km/h 11.1 km/h 83 % 0 mm meteobridge W/m2
10:31 -18.2 °C -19.6 °C 34774.2 hPa WNW 2.9 km/h 14 km/h 83 % 0 mm meteobridge W/m2
10:41 -18.2 °C -19.6 °C 34774.2 hPa WSW 10.3 km/h 10.3 km/h 83 % 0 mm meteobridge W/m2
10:49 -18.2 °C -19.6 °C 34774.2 hPa WSW 7.6 km/h 15.6 km/h 83 % 0 mm meteobridge W/m2
10:55 -18 °C -19.4 °C 34774.2 hPa WSW 10.3 km/h 14 km/h 83 % 0 mm meteobridge W/m2
11:01 -17.9 °C -19.3 °C 34774.2 hPa WSW 14.5 km/h 14.5 km/h 83 % 0 mm meteobridge W/m2
11:09 -17.9 °C -19.3 °C 34774.2 hPa WSW 7.6 km/h 14 km/h 83 % 0 mm meteobridge W/m2
11:15 -17.9 °C -19.4 °C 34774.2 hPa NNW 7.6 km/h 8 km/h 82 % 0 mm meteobridge W/m2
11:21 -17.8 °C -19.3 °C 34774.2 hPa WNW 14.5 km/h 14.5 km/h 82 % 0 mm meteobridge W/m2
11:27 -17.8 °C -19.3 °C 34774.2 hPa WSW 12.2 km/h 12.2 km/h 82 % 0 mm meteobridge W/m2
11:33 -17.8 °C -19.3 °C 34774.2 hPa WSW 9.8 km/h 9.8 km/h 82 % 0 mm meteobridge W/m2
11:39 -17.8 °C -19.3 °C 34774.2 hPa WSW 9.8 km/h 9.8 km/h 82 % 0 mm meteobridge W/m2
11:45 -17.8 °C -19.3 °C 34774.2 hPa West 10.3 km/h 10.3 km/h 82 % 0 mm meteobridge W/m2
11:51 -17.8 °C -19.3 °C 34774.2 hPa West 6.9 km/h 6.9 km/h 82 % 0 mm meteobridge W/m2
11:57 -17.8 °C -19.3 °C 34774.2 hPa West 9.8 km/h 9.8 km/h 82 % 0 mm meteobridge W/m2
12:03 -17.7 °C -19.3 °C 34774.2 hPa West 6.9 km/h 20.3 km/h 81 % 0 mm meteobridge W/m2
12:15 -17.6 °C -19.2 °C 34774.2 hPa WSW 9.8 km/h 9.8 km/h 81 % 0 mm meteobridge W/m2
12:21 -17.6 °C -19.2 °C 34774.2 hPa WNW 9.3 km/h 9.3 km/h 81 % 0 mm meteobridge W/m2
12:27 -17.4 °C -19.1 °C 34774.2 hPa Calm     81 % 0 mm meteobridge W/m2
12:39 -17.5 °C -19.1 °C 34774.2 hPa WSW 14 km/h 14 km/h 81 % 0 mm meteobridge W/m2
12:47 -17.6 °C -19.2 °C 34774.2 hPa WNW 8.9 km/h 9.3 km/h 80 % 0 mm meteobridge W/m2
12:53 -17.4 °C -19.2 °C 34740.4 hPa Calm   2.3 km/h 80 % 0 mm meteobridge W/m2
12:59 -17.5 °C -19.2 °C 34740.4 hPa WSW 2.9 km/h 2.9 km/h 80 % 0 mm meteobridge W/m2
13:05 -17.5 °C -19.2 °C 34740.4 hPa WSW 5.1 km/h 5.1 km/h 80 % 0 mm meteobridge W/m2
13:11 -17.4 °C -19.2 °C 34740.4 hPa WSW 8.9 km/h 8.9 km/h 80 % 0 mm meteobridge W/m2
13:17 -17.6 °C -19.2 °C 34740.4 hPa WSW 8 km/h 8.9 km/h 80 % 0 mm meteobridge W/m2
13:23 -17.6 °C -19.4 °C 34740.4 hPa WSW 6.4 km/h 6.4 km/h 79 % 0 mm meteobridge W/m2
13:29 -17.6 °C -19.4 °C 34740.4 hPa SW 5.1 km/h 10.3 km/h 79 % 0 mm meteobridge W/m2
13:41 -17.6 °C -19.3 °C 34740.4 hPa WSW 7.6 km/h 7.6 km/h 79 % 0 mm meteobridge W/m2
13:49 -17.6 °C -19.3 °C 34740.4 hPa WSW 8.9 km/h 10.3 km/h 79 % 0 mm meteobridge W/m2
13:55 -17.6 °C -19.4 °C 34740.4 hPa WSW 6.9 km/h 14.5 km/h 79 % 0 mm meteobridge W/m2
14:01 -17.6 °C -19.4 °C 34740.4 hPa West 3.4 km/h 7.6 km/h 79 % 0 mm meteobridge W/m2
14:07 -17.6 °C -19.3 °C 34740.4 hPa SSW 7.6 km/h 8.9 km/h 79 % 0 mm meteobridge W/m2
14:13 -17.6 °C -19.4 °C 34740.4 hPa SSE 4.2 km/h 4.2 km/h 79 % 0 mm meteobridge W/m2
14:19 -17.4 °C -19.2 °C 34740.4 hPa Calm     80 % 0 mm meteobridge W/m2
14:31 -17.6 °C -19.3 °C 34740.4 hPa WSW 6.4 km/h 6.4 km/h 79 % 0 mm meteobridge W/m2
14:37 -17.5 °C -19.2 °C 34740.4 hPa WSW 7.6 km/h 7.6 km/h 80 % 0 mm meteobridge W/m2
14:43 -17.6 °C -19.3 °C 34740.4 hPa West 10.3 km/h 10.3 km/h 79 % 0 mm meteobridge W/m2
14:49 -17.6 °C -19.3 °C 34703.1 hPa WSW 16.9 km/h 16.9 km/h 79 % 0 mm meteobridge W/m2
14:55 -17.5 °C -19.3 °C 34703.1 hPa West 4.2 km/h 6.9 km/h 79 % 0 mm meteobridge W/m2
15:08 -17.5 °C -19.3 °C 34703.1 hPa Calm   9.3 km/h 79 % 0 mm meteobridge W/m2
15:15 -17.4 °C -19.2 °C 34703.1 hPa WSW 7.6 km/h 7.6 km/h 80 % 0 mm meteobridge W/m2
15:21 -17.5 °C -19.3 °C 34703.1 hPa WSW 6.4 km/h 9.8 km/h 79 % 0 mm meteobridge W/m2
15:27 -17.5 °C -19.3 °C 34703.1 hPa WSW 9.3 km/h 9.3 km/h 79 % 0 mm meteobridge W/m2
15:33 -17.4 °C -19.2 °C 34703.1 hPa WSW 11.1 km/h 11.1 km/h 80 % 0 mm meteobridge W/m2
15:39 -17.4 °C -19.2 °C 34703.1 hPa West 6.4 km/h 14.5 km/h 80 % 0 mm meteobridge W/m2
15:45 -17.5 °C -19.2 °C 34703.1 hPa WSW 12.7 km/h 12.7 km/h 80 % 0 mm meteobridge W/m2
15:51 -17.4 °C -19.2 °C 34703.1 hPa WSW 4.2 km/h 8.9 km/h 80 % 0 mm meteobridge W/m2
16:03 -17.4 °C -19.2 °C 34703.1 hPa SW 2.9 km/h 2.9 km/h 80 % 0 mm meteobridge W/m2
16:09 -17.4 °C -19.2 °C 34703.1 hPa WSW 2.3 km/h 3.4 km/h 80 % 0 mm meteobridge W/m2
16:19 -17.4 °C -19.2 °C 34703.1 hPa West 4.2 km/h 4.2 km/h 80 % 0 mm meteobridge W/m2
16:25 -17.4 °C -19.2 °C 34703.1 hPa WNW 8.9 km/h 8.9 km/h 80 % 0 mm meteobridge W/m2
16:31 -17.4 °C -19.2 °C 34703.1 hPa WSW 6.9 km/h 6.9 km/h 80 % 0 mm meteobridge W/m2
16:37 -17.4 °C -19 °C 34703.1 hPa WNW 14 km/h 14 km/h 81 % 0 mm meteobridge W/m2
16:43 -17.4 °C -19 °C 34703.1 hPa West 9.3 km/h 9.3 km/h 81 % 0 mm meteobridge W/m2
16:49 -17.3 °C -18.9 °C 34703.1 hPa Calm   6.9 km/h 81 % 0 mm meteobridge W/m2
16:55 -17.4 °C -19 °C 34703.1 hPa Calm   5.1 km/h 81 % 0 mm meteobridge W/m2
17:01 -17.3 °C -18.9 °C 34703.1 hPa WNW 18.7 km/h 18.7 km/h 81 % 0 mm meteobridge W/m2
17:07 -17.3 °C -18.9 °C 34703.1 hPa WSW 2.9 km/h 2.9 km/h 81 % 0 mm meteobridge W/m2
17:13 -17.3 °C -18.9 °C 34703.1 hPa WSW 6.9 km/h 10.3 km/h 81 % 0 mm meteobridge W/m2
17:19 -17.3 °C -18.9 °C 34703.1 hPa WSW 2.3 km/h 5.1 km/h 81 % 0 mm meteobridge W/m2
17:25 -17.2 °C -18.8 °C 34703.1 hPa WSW 8.9 km/h 8.9 km/h 81 % 0 mm meteobridge W/m2
17:31 -17.2 °C -18.8 °C 34703.1 hPa WSW 6.4 km/h 6.4 km/h 81 % 0 mm meteobridge W/m2
17:49 -17.1 °C -18.8 °C 34703.1 hPa WSW 9.8 km/h 9.8 km/h 80 % 0 mm meteobridge W/m2
17:55 -17.1 °C -18.9 °C 34703.1 hPa WSW 3.4 km/h 7.6 km/h 79 % 0 mm meteobridge W/m2
18:01 -17.1 °C -18.9 °C 34703.1 hPa WSW 7.6 km/h 14.5 km/h 79 % 0 mm meteobridge W/m2
18:07 -17.1 °C -18.9 °C 34703.1 hPa WSW 4.2 km/h 4.2 km/h 78 % 0 mm meteobridge W/m2
18:13 -17.1 °C -19 °C 34703.1 hPa WSW 8 km/h 8 km/h 78 % 0 mm meteobridge W/m2
18:19 -17.1 °C -18.9 °C 34703.1 hPa WSW 14 km/h 14 km/h 78 % 0 mm meteobridge W/m2
18:25 -17.1 °C -18.9 °C 34703.1 hPa WNW 6.9 km/h 6.9 km/h 78 % 0 mm meteobridge W/m2
18:31 -17.1 °C -19 °C 34703.1 hPa West 8 km/h 9.3 km/h 78 % 0 mm meteobridge W/m2
18:39 -17.1 °C -19 °C 34703.1 hPa West 5.1 km/h 5.1 km/h 78 % 0 mm meteobridge W/m2
18:45 -17.1 °C -19 °C 34703.1 hPa West 2.3 km/h 14 km/h 78 % 0 mm meteobridge W/m2
18:51 -17.1 °C -19 °C 34740.4 hPa WSW 2.3 km/h 6.4 km/h 78 % 0 mm meteobridge W/m2
19:09 -17.2 °C -19.1 °C 34740.4 hPa WSW 9.3 km/h 9.3 km/h 78 % 0 mm meteobridge W/m2
19:15 -17.2 °C -19.1 °C 34740.4 hPa WNW 6.4 km/h 15 km/h 78 % 0 mm meteobridge W/m2
19:21 -17.2 °C -19.1 °C 34740.4 hPa WSW 10.3 km/h 10.3 km/h 78 % 0 mm meteobridge W/m2
19:27 -17.2 °C -19.1 °C 34740.4 hPa WSW 6.9 km/h 11.1 km/h 78 % 0 mm meteobridge W/m2
19:33 -17.2 °C -19.1 °C 34740.4 hPa WSW 12.7 km/h 12.7 km/h 78 % 0 mm meteobridge W/m2
19:45 -17.2 °C -19.1 °C 34740.4 hPa WSW 9.3 km/h -2586.8 km/h 78 % 0 mm meteobridge W/m2
19:51 -17.2 °C -19.1 °C 34740.4 hPa WSW 6.4 km/h 6.9 km/h 78 % 0 mm meteobridge W/m2
19:57 -17.2 °C -19.1 °C 34740.4 hPa WSW 14.5 km/h 14.5 km/h 78 % 0 mm meteobridge W/m2
20:03 -17.2 °C -19.1 °C 34740.4 hPa WSW 9.3 km/h 9.3 km/h 78 % 0 mm meteobridge W/m2
20:23 -17.3 °C -19.1 °C 34740.4 hPa WSW 4.2 km/h 7.6 km/h 79 % 0 mm meteobridge W/m2
20:29 -17.2 °C -19 °C 34740.4 hPa WSW 8.9 km/h 8.9 km/h 79 % 0 mm meteobridge W/m2
20:35 -17.2 °C -19 °C 34740.4 hPa WSW 5.1 km/h 5.1 km/h 79 % 0 mm meteobridge W/m2
20:40 -17.2 °C -19 °C 34740.4 hPa WSW 2.9 km/h 2.9 km/h 79 % 0 mm meteobridge W/m2
20:46 -17.2 °C -19 °C 34740.4 hPa WSW 6.9 km/h -2586.8 km/h 79 % 0 mm meteobridge W/m2
20:53 -17.2 °C -18.9 °C 34740.4 hPa WSW 2.9 km/h -2586.8 km/h 79 % 0 mm meteobridge W/m2
20:59 -17.1 °C -19 °C 34740.4 hPa WSW 6.4 km/h 6.4 km/h 78 % 0 mm meteobridge W/m2
21:06 -17.2 °C -19.1 °C 34740.4 hPa WSW 9.8 km/h 9.8 km/h 78 % 0 mm meteobridge W/m2
21:16 -17.2 °C -19.1 °C 34740.4 hPa WSW 11.1 km/h 11.1 km/h 78 % 0 mm meteobridge W/m2
21:22 -17.2 °C -19.1 °C 34740.4 hPa NW 4.2 km/h 4.2 km/h 78 % 0 mm meteobridge W/m2
21:29 -17.2 °C -19.1 °C 34740.4 hPa West 6.9 km/h -2586.8 km/h 78 % 0 mm meteobridge W/m2
21:35 -17.2 °C -19.2 °C 34740.4 hPa West 29 km/h 29 km/h 77 % 0 mm meteobridge W/m2
21:53 -17.2 °C -19.3 °C 34740.4 hPa West 37 km/h -2586.8 km/h 75 % 0 mm meteobridge W/m2
21:59 -17.2 °C -19.3 °C 34740.4 hPa WSW 26.2 km/h -2586.8 km/h 75 % 0 mm meteobridge W/m2
22:12 -17.1 °C -19.4 °C 34740.4 hPa WSW 12.7 km/h 12.7 km/h 74 % 0 mm meteobridge W/m2
22:18 -17.2 °C -19.5 °C 34740.4 hPa East 14.5 km/h 14.5 km/h 74 % 0 mm meteobridge W/m2
22:25 -17.3 °C -19.6 °C 34740.4 hPa WSW 14.5 km/h 16.3 km/h 74 % 0 mm meteobridge W/m2
22:31 -17.2 °C -19.5 °C 34740.4 hPa WSW 22 km/h 22 km/h 74 % 0 mm meteobridge W/m2
22:38 -17.2 °C -19.5 °C 34740.4 hPa WSW 6.9 km/h 10.3 km/h 74 % 0 mm meteobridge W/m2
22:50 -17.2 °C -19.6 °C 34740.4 hPa WSW 16.3 km/h 18.7 km/h 73 % 0 mm meteobridge W/m2
22:57 -17.2 °C -19.5 °C 34740.4 hPa WSW 8 km/h 9.3 km/h 74 % 0 mm meteobridge W/m2
23:03 -17.3 °C -19.6 °C 34740.4 hPa WSW 6.9 km/h 6.9 km/h 74 % 0 mm meteobridge W/m2
23:10 -17.3 °C -19.6 °C 34740.4 hPa WNW 6.9 km/h 9.3 km/h 74 % 0 mm meteobridge W/m2
23:16 -17.3 °C -19.6 °C 34740.4 hPa WSW 9.8 km/h 9.8 km/h 74 % 0 mm meteobridge W/m2
23:22 -17.3 °C -19.6 °C 34740.4 hPa WSW 6.4 km/h 6.9 km/h 74 % 0 mm meteobridge W/m2
23:29 -17.3 °C -19.6 °C 34740.4 hPa WSW 6.9 km/h 14 km/h 74 % 0 mm meteobridge W/m2
23:36 -17.3 °C -19.6 °C 34740.4 hPa WSW 8 km/h 8 km/h 74 % 0 mm meteobridge W/m2
23:42 -17.3 °C -19.6 °C 34740.4 hPa WSW 6.4 km/h 6.4 km/h 74 % 0 mm meteobridge W/m2
23:48 -17.2 °C -19.5 °C 34740.4 hPa WNW 22.5 km/h 22.5 km/h 74 % 0 mm meteobridge W/m2
23:53 -17.2 °C -19.5 °C 34740.4 hPa WSW 11.1 km/h 11.1 km/h 74 % 0 mm meteobridge W/m2
23:59 -17.3 °C -19.6 °C 34740.4 hPa WSW 5.1 km/h 5.1 km/h 74 % 0 mm meteobridge W/m2
Juneau County Weather
Compliments of Weather Underground - 2.25 mb